createdAt,value
2023-05-13T00:00:18.242Z,100265.22
2023-05-13T00:02:45.890Z,100260.94
2023-05-13T00:05:13.149Z,100270.97
2023-05-13T00:07:41.734Z,100264.97
2023-05-13T00:10:09.452Z,100269.94
2023-05-13T00:12:37.195Z,100266.63
2023-05-13T00:15:04.605Z,100264.84
2023-05-13T00:17:32.422Z,100261.03
2023-05-13T00:19:59.678Z,100262.03
2023-05-13T00:22:26.818Z,100261.50
2023-05-13T00:24:54.261Z,100268.53
2023-05-13T00:27:21.458Z,100267.25
2023-05-13T00:29:48.941Z,100265.81
2023-05-13T00:32:16.549Z,100274.06
2023-05-13T00:34:43.732Z,100274.63
2023-05-13T00:37:12.179Z,100265.88
2023-05-13T00:39:39.673Z,100273.84
2023-05-13T00:42:06.848Z,100269.94
2023-05-13T00:44:34.794Z,100275.25
2023-05-13T00:47:02.328Z,100283.50
2023-05-13T00:49:29.506Z,100277.69
2023-05-13T00:51:56.706Z,100277.97
2023-05-13T00:54:24.162Z,100279.53
2023-05-13T00:56:56.573Z,100277.50
2023-05-13T00:59:24.894Z,100275.34
2023-05-13T01:01:52.250Z,100277.59
2023-05-13T01:04:25.327Z,100285.09
2023-05-13T01:07:04.914Z,100282.34
2023-05-13T01:09:53.354Z,100282.78
2023-05-13T01:12:29.734Z,100286.69
2023-05-13T01:15:07.541Z,100283.09
2023-05-13T01:17:41.775Z,100281.25
2023-05-13T01:20:09.341Z,100283.00
2023-05-13T01:22:36.937Z,100286.34
2023-05-13T01:25:04.978Z,100285.53
2023-05-13T01:27:32.490Z,100284.22
2023-05-13T01:30:00.615Z,100293.81
2023-05-13T01:32:28.084Z,100290.84
2023-05-13T01:34:55.429Z,100284.34
2023-05-13T01:37:23.027Z,100288.09
2023-05-13T01:39:50.642Z,100293.50
2023-05-13T01:42:17.952Z,100288.88
2023-05-13T01:44:45.548Z,100290.03
2023-05-13T01:47:12.725Z,100294.75
2023-05-13T01:49:39.885Z,100292.22
2023-05-13T01:52:07.405Z,100293.38
2023-05-13T01:54:34.576Z,100286.28
2023-05-13T01:57:03.295Z,100284.13
2023-05-13T01:59:30.928Z,100287.38
2023-05-13T02:01:59.380Z,100294.97
2023-05-13T02:04:27.445Z,100299.13
2023-05-13T02:06:54.755Z,100289.97
2023-05-13T02:09:22.564Z,100303.56
2023-05-13T02:11:50.060Z,100299.41
2023-05-13T02:14:17.297Z,100293.63
2023-05-13T02:16:44.543Z,100295.59
2023-05-13T02:19:12.219Z,100295.81
2023-05-13T02:21:39.785Z,100301.09
2023-05-13T02:24:07.433Z,100296.06
2023-05-13T02:26:34.671Z,100287.94
2023-05-13T02:29:02.106Z,100294.16
2023-05-13T02:31:29.686Z,100291.34
2023-05-13T02:33:56.931Z,100294.13
2023-05-13T02:36:24.910Z,100303.88
2023-05-13T02:38:52.426Z,100300.84
2023-05-13T02:41:19.768Z,100295.56
2023-05-13T02:43:47.741Z,100297.00
2023-05-13T02:46:15.684Z,100305.84
2023-05-13T02:48:44.184Z,100300.03
2023-05-13T02:51:11.620Z,100298.47
2023-05-13T02:53:39.369Z,100297.94
2023-05-13T02:56:07.729Z,100307.12
2023-05-13T02:58:35.957Z,100312.66
2023-05-13T03:01:03.221Z,100305.34
2023-05-13T03:03:30.762Z,100309.97
2023-05-13T03:05:58.320Z,100306.56
2023-05-13T03:08:25.656Z,100311.87
2023-05-13T03:10:54.058Z,100311.87
2023-05-13T03:13:21.646Z,100309.06
2023-05-13T03:15:48.892Z,100321.75
2023-05-13T03:18:16.166Z,100314.53
2023-05-13T03:20:43.594Z,100311.87
2023-05-13T03:23:11.020Z,100304.81
2023-05-13T03:25:38.184Z,100309.56
2023-05-13T03:28:06.642Z,100315.06
2023-05-13T03:30:34.627Z,100316.97
2023-05-13T03:33:02.256Z,100321.03
2023-05-13T03:35:29.786Z,100322.94
2023-05-13T03:37:56.959Z,100325.06
2023-05-13T03:40:24.509Z,100325.19
2023-05-13T03:42:52.033Z,100325.56
2023-05-13T03:45:19.535Z,100331.87
2023-05-13T03:47:47.894Z,100330.94
2023-05-13T03:50:15.944Z,100337.69
2023-05-13T03:52:45.534Z,100338.25
2023-05-13T03:55:15.257Z,100337.66
2023-05-13T03:57:45.029Z,100338.50
2023-05-13T04:00:12.592Z,100341.69
2023-05-13T04:02:41.884Z,100339.41
2023-05-13T04:05:10.094Z,100337.59
2023-05-13T04:07:37.262Z,100357.44
2023-05-13T04:10:04.641Z,100345.28
2023-05-13T04:12:33.400Z,100347.09
2023-05-13T04:15:00.940Z,100343.56
2023-05-13T04:17:28.833Z,100353.78
2023-05-13T04:19:56.339Z,100349.47
2023-05-13T04:22:24.277Z,100345.06
2023-05-13T04:24:56.381Z,100356.47
2023-05-13T04:27:24.299Z,100359.19
2023-05-13T04:29:52.314Z,100354.94
2023-05-13T04:32:22.123Z,100357.72
2023-05-13T04:34:50.325Z,100355.47
2023-05-13T04:37:17.536Z,100358.44
2023-05-13T04:39:48.097Z,100358.19
2023-05-13T04:42:16.678Z,100360.44
2023-05-13T04:44:43.880Z,100364.34
2023-05-13T04:47:11.293Z,100356.78
2023-05-13T04:49:38.764Z,100360.19
2023-05-13T04:52:06.749Z,100362.25
2023-05-13T04:54:35.944Z,100362.53
2023-05-13T04:57:03.582Z,100364.84
2023-05-13T04:59:31.144Z,100370.44
2023-05-13T05:01:58.459Z,100378.72
2023-05-13T05:04:26.025Z,100384.16
2023-05-13T05:06:53.626Z,100382.19
2023-05-13T05:09:20.840Z,100388.31
2023-05-13T05:11:50.483Z,100389.72
2023-05-13T05:14:18.279Z,100394.16
2023-05-13T05:16:46.137Z,100388.38
2023-05-13T05:19:14.684Z,100390.22
2023-05-13T05:21:41.998Z,100379.81
2023-05-13T05:24:09.563Z,100384.47
2023-05-13T05:26:37.004Z,100379.06
2023-05-13T05:29:05.678Z,100395.75
2023-05-13T05:31:33.487Z,100390.97
2023-05-13T05:34:01.766Z,100394.72
2023-05-13T05:36:29.217Z,100390.25
2023-05-13T05:38:56.416Z,100388.66
2023-05-13T05:41:25.937Z,100402.69
2023-05-13T05:43:53.105Z,100398.94
2023-05-13T05:46:20.400Z,100395.78
2023-05-13T05:48:48.597Z,100397.38
2023-05-13T05:51:15.757Z,100390.38
2023-05-13T05:53:43.156Z,100397.41
2023-05-13T05:56:11.162Z,100393.69
2023-05-13T05:58:38.318Z,100390.00
2023-05-13T06:01:06.001Z,100392.25
2023-05-13T06:03:33.872Z,100391.06
2023-05-13T06:06:01.260Z,100406.94
2023-05-13T06:08:30.978Z,100402.75
2023-05-13T06:10:58.629Z,100407.94
2023-05-13T06:13:26.323Z,100411.72
2023-05-13T06:15:53.601Z,100412.53
2023-05-13T06:18:21.121Z,100402.44
2023-05-13T06:20:48.294Z,100405.88
2023-05-13T06:23:15.675Z,100407.28
2023-05-13T06:25:43.203Z,100407.53
2023-05-13T06:28:10.848Z,100408.78
2023-05-13T06:30:38.710Z,100413.22
2023-05-13T06:33:06.412Z,100410.37
2023-05-13T06:35:33.650Z,100416.44
2023-05-13T06:38:01.199Z,100417.56
2023-05-13T06:40:29.675Z,100412.91
2023-05-13T06:42:56.918Z,100413.63
2023-05-13T06:45:27.904Z,100420.06
2023-05-13T06:47:55.570Z,100417.56
2023-05-13T06:50:22.899Z,100410.91
2023-05-13T06:52:50.319Z,100412.88
2023-05-13T06:55:19.117Z,100421.16
2023-05-13T06:57:47.294Z,100414.56
2023-05-13T07:00:15.136Z,100410.88
2023-05-13T07:02:42.749Z,100410.59
2023-05-13T07:05:11.391Z,100413.63
2023-05-13T07:07:38.839Z,100408.72
2023-05-13T07:10:06.459Z,100415.94
2023-05-13T07:12:33.709Z,100409.28
2023-05-13T07:15:00.855Z,100400.69
2023-05-13T07:17:28.426Z,100397.38
2023-05-13T07:19:55.688Z,100397.19
2023-05-13T07:22:22.841Z,100408.16
2023-05-13T07:24:50.284Z,100404.69
2023-05-13T07:27:17.610Z,100408.50
2023-05-13T07:29:44.813Z,100415.81
2023-05-13T07:32:12.778Z,100420.34
2023-05-13T07:34:40.198Z,100416.44
2023-05-13T07:37:07.476Z,100417.19
2023-05-13T07:39:35.422Z,100426.75
2023-05-13T07:42:03.437Z,100421.41
2023-05-13T07:44:31.084Z,100425.47
2023-05-13T07:46:58.584Z,100418.69
2023-05-13T07:49:25.786Z,100426.38
2023-05-13T07:51:52.978Z,100416.31
2023-05-13T07:54:20.924Z,100423.34
2023-05-13T07:56:48.101Z,100428.28
2023-05-13T07:59:15.281Z,100430.00
2023-05-13T08:01:42.902Z,100425.47
2023-05-13T08:04:10.759Z,100424.50
2023-05-13T08:06:38.089Z,100433.34
2023-05-13T08:09:05.262Z,100440.00
2023-05-13T08:11:32.625Z,100440.66
2023-05-13T08:13:59.930Z,100436.81
2023-05-13T08:16:27.188Z,100443.09
2023-05-13T08:18:54.986Z,100447.28
2023-05-13T08:21:22.188Z,100451.28
2023-05-13T08:23:52.190Z,100452.69
2023-05-13T08:26:19.684Z,100458.09
2023-05-13T08:28:46.826Z,100456.72
2023-05-13T08:31:14.085Z,100467.28
2023-05-13T08:33:47.506Z,100467.19
2023-05-13T08:36:14.720Z,100474.44
2023-05-13T08:38:43.492Z,100480.53
2023-05-13T08:41:14.208Z,100475.19
2023-05-13T08:43:44.779Z,100477.81
2023-05-13T08:46:13.295Z,100475.13
2023-05-13T08:48:41.298Z,100465.91
2023-05-13T08:51:09.336Z,100473.44
2023-05-13T08:53:37.513Z,100472.22
2023-05-13T08:56:04.837Z,100470.87
2023-05-13T08:58:32.262Z,100475.13
2023-05-13T09:00:59.431Z,100468.28
2023-05-13T09:03:27.733Z,100468.69
2023-05-13T09:05:55.219Z,100463.03
2023-05-13T09:08:22.470Z,100464.28
2023-05-13T09:10:49.619Z,100467.78
2023-05-13T09:13:18.709Z,100462.97
2023-05-13T09:15:46.280Z,100465.59
2023-05-13T09:18:16.449Z,100457.81
2023-05-13T09:20:46.194Z,100466.53
2023-05-13T09:23:13.580Z,100461.28
2023-05-13T09:25:40.931Z,100463.28
2023-05-13T09:28:08.685Z,100463.91
2023-05-13T09:30:45.618Z,100462.72
2023-05-13T09:33:15.145Z,100471.09
2023-05-13T09:35:48.842Z,100468.00
2023-05-13T09:38:19.853Z,100464.22
2023-05-13T09:41:05.083Z,100473.53
2023-05-13T09:43:33.254Z,100475.31
2023-05-13T09:46:01.459Z,100481.88
2023-05-13T09:48:29.785Z,100462.41
2023-05-13T09:50:58.568Z,100467.03
2023-05-13T09:53:26.301Z,100467.03
2023-05-13T09:55:58.262Z,100462.50
2023-05-13T09:58:28.207Z,100454.50
2023-05-13T10:00:56.101Z,100454.94
2023-05-13T10:03:24.048Z,100455.94
2023-05-13T10:05:51.454Z,100465.25
2023-05-13T10:08:18.625Z,100462.59
2023-05-13T10:10:46.489Z,100460.00
2023-05-13T10:13:14.329Z,100460.81
2023-05-13T10:15:54.592Z,100457.78
2023-05-13T10:18:23.888Z,100463.28
2023-05-13T10:20:53.746Z,100460.47
2023-05-13T10:23:23.701Z,100450.97
2023-05-13T10:25:50.964Z,100454.44
2023-05-13T10:28:18.112Z,100451.22
2023-05-13T10:30:45.692Z,100448.03
2023-05-13T10:33:12.952Z,100453.13
2023-05-13T10:35:42.808Z,100456.09
2023-05-13T10:38:17.408Z,100452.81
2023-05-13T10:40:44.550Z,100457.91
2023-05-13T10:43:11.981Z,100458.47
2023-05-13T10:45:39.184Z,100456.63
2023-05-13T10:48:07.344Z,100465.41
2023-05-13T10:50:41.417Z,100465.81
2023-05-13T10:53:10.310Z,100462.06
2023-05-13T10:55:43.780Z,100467.41
2023-05-13T10:58:14.849Z,100464.25
2023-05-13T11:00:43.661Z,100464.31
2023-05-13T11:03:15.338Z,100464.06
2023-05-13T11:06:04.549Z,100464.69
2023-05-13T11:08:38.884Z,100460.75
2023-05-13T11:11:21.426Z,100458.34
2023-05-13T11:13:53.468Z,100461.56
2023-05-13T11:16:21.173Z,100462.94
2023-05-13T11:18:49.277Z,100461.19
2023-05-13T11:21:16.590Z,100452.25
2023-05-13T11:23:53.133Z,100460.34
2023-05-13T11:26:21.515Z,100456.31
2023-05-13T11:28:54.976Z,100446.03
2023-05-13T11:31:22.827Z,100453.34
2023-05-13T11:34:09.799Z,100452.84
2023-05-13T11:36:37.881Z,100452.25
2023-05-13T11:39:13.688Z,100457.13
2023-05-13T11:41:41.809Z,100460.56
2023-05-13T11:44:09.335Z,100461.91
2023-05-13T11:46:36.665Z,100460.13
2023-05-13T11:49:05.878Z,100456.56
2023-05-13T11:51:34.724Z,100460.28
2023-05-13T11:54:03.111Z,100468.50
2023-05-13T11:56:30.512Z,100472.00
2023-05-13T11:59:12.598Z,100469.47
2023-05-13T12:01:40.953Z,100470.34
2023-05-13T12:04:08.770Z,100472.13
2023-05-13T12:06:43.726Z,100463.91
2023-05-13T12:09:11.948Z,100461.13
2023-05-13T12:11:39.423Z,100459.94
2023-05-13T12:14:06.664Z,100461.91
2023-05-13T12:16:34.203Z,100459.31
2023-05-13T12:19:07.654Z,100467.84
2023-05-13T12:21:35.206Z,100470.09
2023-05-13T12:24:02.509Z,100481.97
2023-05-13T12:26:29.684Z,100474.09
2023-05-13T12:28:59.962Z,100476.63
2023-05-13T12:31:27.478Z,100479.78
2023-05-13T12:33:54.814Z,100480.19
2023-05-13T12:36:32.049Z,100481.44
2023-05-13T12:39:00.633Z,100485.00
2023-05-13T12:41:29.470Z,100479.00
2023-05-13T12:44:00.484Z,100476.72
2023-05-13T12:46:27.840Z,100473.91
2023-05-13T12:48:56.016Z,100465.75
2023-05-13T12:51:23.478Z,100474.25
2023-05-13T12:53:52.243Z,100473.75
2023-05-13T12:56:20.434Z,100473.12
2023-05-13T12:58:47.854Z,100469.81
2023-05-13T13:01:15.225Z,100476.00
2023-05-13T13:03:42.905Z,100468.94
2023-05-13T13:06:10.426Z,100468.38
2023-05-13T13:08:37.589Z,100464.56
2023-05-13T13:11:05.028Z,100466.28
2023-05-13T13:13:32.703Z,100471.56
2023-05-13T13:16:00.122Z,100472.41
2023-05-13T13:18:27.698Z,100475.59
2023-05-13T13:20:54.934Z,100468.75
2023-05-13T13:23:22.173Z,100461.66
2023-05-13T13:25:49.615Z,100461.63
2023-05-13T13:28:17.052Z,100456.28
2023-05-13T13:30:47.018Z,100468.03
2023-05-13T13:33:15.545Z,100461.56
2023-05-13T13:35:43.414Z,100455.50
2023-05-13T13:38:10.804Z,100463.25
2023-05-13T13:40:38.989Z,100458.28
2023-05-13T13:43:06.868Z,100466.97
2023-05-13T13:45:34.284Z,100474.56
2023-05-13T13:48:01.757Z,100462.75
2023-05-13T13:50:29.067Z,100472.75
2023-05-13T13:52:56.530Z,100474.75
2023-05-13T13:55:24.285Z,100471.25
2023-05-13T13:57:52.152Z,100468.75
2023-05-13T14:00:19.538Z,100453.97
2023-05-13T14:02:47.144Z,100461.66
2023-05-13T14:05:14.513Z,100451.19
2023-05-13T14:07:41.744Z,100448.69
2023-05-13T14:10:09.578Z,100442.62
2023-05-13T14:12:37.479Z,100448.94
2023-05-13T14:15:04.974Z,100446.00
2023-05-13T14:17:32.716Z,100447.13
2023-05-13T14:19:59.954Z,100440.06
2023-05-13T14:22:27.203Z,100438.22
2023-05-13T14:24:54.694Z,100432.16
2023-05-13T14:27:24.727Z,100426.72
2023-05-13T14:29:52.037Z,100433.78
2023-05-13T14:32:19.541Z,100428.59
2023-05-13T14:34:46.727Z,100425.28
2023-05-13T14:37:16.364Z,100429.12
2023-05-13T14:39:43.796Z,100421.69
2023-05-13T14:42:11.798Z,100432.75
2023-05-13T14:44:41.356Z,100427.00
2023-05-13T14:47:09.186Z,100428.34
2023-05-13T14:49:36.448Z,100424.91
2023-05-13T14:52:03.678Z,100425.50
2023-05-13T14:54:35.710Z,100424.75
2023-05-13T14:57:03.570Z,100423.19
2023-05-13T14:59:31.158Z,100423.56
2023-05-13T15:01:58.361Z,100416.09
2023-05-13T15:04:25.661Z,100415.06
2023-05-13T15:06:53.559Z,100417.47
2023-05-13T15:09:20.750Z,100421.47
2023-05-13T15:11:47.995Z,100423.94
2023-05-13T15:14:17.831Z,100424.31
2023-05-13T15:16:45.281Z,100421.03
2023-05-13T15:19:12.473Z,100411.41
2023-05-13T15:21:40.068Z,100421.41
2023-05-13T15:24:07.307Z,100423.47
2023-05-13T15:26:34.436Z,100424.78
2023-05-13T15:29:01.909Z,100425.94
2023-05-13T15:31:29.915Z,100427.56
2023-05-13T15:33:57.266Z,100426.81
2023-05-13T15:36:24.714Z,100432.72
2023-05-13T15:38:51.852Z,100431.88
2023-05-13T15:41:19.007Z,100437.03
2023-05-13T15:43:46.473Z,100437.06
2023-05-13T15:46:13.729Z,100433.63
2023-05-13T15:48:40.977Z,100436.72
2023-05-13T15:51:08.433Z,100436.16
2023-05-13T15:53:35.593Z,100435.72
2023-05-13T15:56:02.784Z,100433.75
2023-05-13T15:58:30.599Z,100429.53
2023-05-13T16:00:58.255Z,100434.00
2023-05-13T16:03:26.864Z,100423.84
2023-05-13T16:05:54.160Z,100426.97
2023-05-13T16:08:21.311Z,100429.19
2023-05-13T16:10:48.883Z,100435.72
2023-05-13T16:13:16.062Z,100439.84
2023-05-13T16:15:43.255Z,100439.69
2023-05-13T16:18:10.729Z,100443.47
2023-05-13T16:20:38.025Z,100442.66
2023-05-13T16:23:05.680Z,100426.72
2023-05-13T16:25:33.154Z,100425.19
2023-05-13T16:28:00.554Z,100425.69
2023-05-13T16:30:27.745Z,100415.47
2023-05-13T16:32:55.153Z,100428.31
2023-05-13T16:35:22.485Z,100418.03
2023-05-13T16:37:50.049Z,100422.00
2023-05-13T16:40:17.577Z,100412.81
2023-05-13T16:42:45.238Z,100420.47
2023-05-13T16:45:12.489Z,100408.47
2023-05-13T16:47:39.948Z,100414.69
2023-05-13T16:50:08.577Z,100407.97
2023-05-13T16:52:35.822Z,100410.91
2023-05-13T16:55:03.317Z,100412.09
2023-05-13T16:57:30.569Z,100409.91
2023-05-13T16:59:57.708Z,100405.19
2023-05-13T17:02:26.764Z,100403.59
2023-05-13T17:04:54.007Z,100396.66
2023-05-13T17:07:21.289Z,100399.59
2023-05-13T17:09:48.726Z,100402.78
2023-05-13T17:12:16.761Z,100408.56
2023-05-13T17:14:43.977Z,100401.75
2023-05-13T17:17:11.648Z,100410.03
2023-05-13T17:19:38.950Z,100411.59
2023-05-13T17:22:06.101Z,100417.13
2023-05-13T17:24:33.575Z,100413.78
2023-05-13T17:27:01.335Z,100404.97
2023-05-13T17:29:28.508Z,100397.63
2023-05-13T17:31:56.006Z,100395.94
2023-05-13T17:34:23.119Z,100395.50
2023-05-13T17:36:50.373Z,100393.41
2023-05-13T17:39:17.892Z,100387.66
2023-05-13T17:41:46.112Z,100386.03
2023-05-13T17:44:13.256Z,100395.00
2023-05-13T17:46:40.779Z,100404.94
2023-05-13T17:49:07.942Z,100397.59
2023-05-13T17:51:35.101Z,100396.69
2023-05-13T17:54:02.551Z,100400.88
2023-05-13T17:56:29.887Z,100403.56
2023-05-13T17:58:57.001Z,100409.87
2023-05-13T18:01:24.670Z,100403.78
2023-05-13T18:03:52.083Z,100404.25
2023-05-13T18:06:19.335Z,100416.16
2023-05-13T18:08:46.494Z,100408.66
2023-05-13T18:11:13.936Z,100406.25
2023-05-13T18:13:41.092Z,100397.28
2023-05-13T18:16:09.221Z,100398.53
2023-05-13T18:18:36.940Z,100391.94
2023-05-13T18:21:04.185Z,100388.69
2023-05-13T18:23:32.742Z,100390.94
2023-05-13T18:26:00.190Z,100401.00
2023-05-13T18:28:27.445Z,100408.41
2023-05-13T18:30:54.689Z,100406.78
2023-05-13T18:33:22.322Z,100418.94
2023-05-13T18:35:49.526Z,100416.06
2023-05-13T18:38:16.865Z,100421.88
2023-05-13T18:40:45.393Z,100418.94
2023-05-13T18:43:13.615Z,100421.44
2023-05-13T18:45:41.518Z,100430.47
2023-05-13T18:48:09.017Z,100422.88
2023-05-13T18:50:36.231Z,100425.59
2023-05-13T18:53:03.466Z,100426.09
2023-05-13T18:55:31.144Z,100429.63
2023-05-13T18:57:58.523Z,100422.50
2023-05-13T19:00:25.704Z,100433.66
2023-05-13T19:02:53.271Z,100434.47
2023-05-13T19:05:21.010Z,100428.81
2023-05-13T19:07:48.261Z,100435.12
2023-05-13T19:10:15.784Z,100436.09
2023-05-13T19:12:43.145Z,100436.56
2023-05-13T19:15:11.379Z,100436.53
2023-05-13T19:17:40.591Z,100437.66
2023-05-13T19:20:08.341Z,100442.47
2023-05-13T19:22:35.550Z,100440.37
2023-05-13T19:25:03.292Z,100443.44
2023-05-13T19:27:30.452Z,100442.84
2023-05-13T19:29:58.272Z,100438.41
2023-05-13T19:32:25.847Z,100438.84
2023-05-13T19:34:53.451Z,100426.91
2023-05-13T19:37:20.680Z,100429.28
2023-05-13T19:39:48.304Z,100438.72
2023-05-13T19:42:15.796Z,100438.06
2023-05-13T19:44:43.035Z,100448.34
2023-05-13T19:47:10.861Z,100437.94
2023-05-13T19:49:38.048Z,100438.66
2023-05-13T19:52:05.425Z,100442.88
2023-05-13T19:54:32.962Z,100438.44
2023-05-13T19:57:00.604Z,100439.38
2023-05-13T19:59:27.906Z,100442.12
2023-05-13T20:01:55.402Z,100444.41
2023-05-13T20:04:23.487Z,100431.00
2023-05-13T20:06:50.654Z,100433.47
2023-05-13T20:09:17.825Z,100437.63
2023-05-13T20:11:45.382Z,100430.88
2023-05-13T20:14:13.275Z,100419.31
2023-05-13T20:16:40.717Z,100424.78
2023-05-13T20:19:08.429Z,100417.97
2023-05-13T20:21:35.838Z,100438.25
2023-05-13T20:24:02.997Z,100440.25
2023-05-13T20:26:34.589Z,100441.44
2023-05-13T20:29:02.113Z,100446.16
2023-05-13T20:31:29.403Z,100442.38
2023-05-13T20:33:57.598Z,100443.84
2023-05-13T20:36:24.817Z,100434.47
2023-05-13T20:38:52.216Z,100430.72
2023-05-13T20:41:19.807Z,100428.62
2023-05-13T20:43:47.144Z,100417.28
2023-05-13T20:46:17.013Z,100418.88
2023-05-13T20:48:44.676Z,100420.81
2023-05-13T20:51:11.889Z,100415.22
2023-05-13T20:53:39.069Z,100414.19
2023-05-13T20:56:06.573Z,100416.31
2023-05-13T20:58:33.745Z,100415.53
2023-05-13T21:01:00.964Z,100418.00
2023-05-13T21:03:28.548Z,100417.66
2023-05-13T21:05:55.727Z,100412.50
2023-05-13T21:08:22.871Z,100414.44
2023-05-13T21:10:50.347Z,100418.69
2023-05-13T21:13:17.510Z,100415.47
2023-05-13T21:15:44.710Z,100415.25
2023-05-13T21:18:12.256Z,100419.06
2023-05-13T21:20:39.461Z,100407.78
2023-05-13T21:23:06.596Z,100418.81
2023-05-13T21:25:34.214Z,100410.69
2023-05-13T21:28:01.631Z,100408.94
2023-05-13T21:30:28.867Z,100407.19
2023-05-13T21:32:56.322Z,100414.06
2023-05-13T21:35:25.926Z,100407.41
2023-05-13T21:37:56.170Z,100408.03
2023-05-13T21:40:32.127Z,100406.19
2023-05-13T21:42:59.318Z,100401.84
2023-05-13T21:45:26.498Z,100401.59
2023-05-13T21:47:53.984Z,100395.56
2023-05-13T21:50:21.310Z,100399.25
2023-05-13T21:52:48.597Z,100400.69
2023-05-13T21:55:16.088Z,100389.84
2023-05-13T21:57:43.249Z,100393.47
2023-05-13T22:00:15.095Z,100383.28
2023-05-13T22:02:43.731Z,100382.84
2023-05-13T22:05:11.837Z,100378.34
2023-05-13T22:07:38.967Z,100375.84
2023-05-13T22:10:06.809Z,100372.28
2023-05-13T22:12:34.346Z,100372.94
2023-05-13T22:15:01.590Z,100372.41
2023-05-13T22:17:30.910Z,100379.37
2023-05-13T22:19:58.539Z,100375.87
2023-05-13T22:22:25.724Z,100369.78
2023-05-13T22:24:52.870Z,100372.19
2023-05-13T22:27:21.355Z,100375.34
2023-05-13T22:29:48.539Z,100378.78
2023-05-13T22:32:15.705Z,100384.72
2023-05-13T22:34:43.221Z,100382.47
2023-05-13T22:37:10.355Z,100381.91
2023-05-13T22:39:37.510Z,100377.44
2023-05-13T22:42:05.067Z,100380.94
2023-05-13T22:44:32.224Z,100386.00
2023-05-13T22:46:59.429Z,100378.59
2023-05-13T22:49:26.832Z,100372.94
2023-05-13T22:51:54.018Z,100372.78
2023-05-13T22:54:21.211Z,100373.06
2023-05-13T22:56:48.640Z,100369.63
2023-05-13T22:59:15.843Z,100364.34
2023-05-13T23:01:43.140Z,100359.94
2023-05-13T23:04:10.636Z,100365.25
2023-05-13T23:06:37.916Z,100358.91
2023-05-13T23:09:05.686Z,100368.47
2023-05-13T23:11:35.837Z,100363.72
2023-05-13T23:14:03.022Z,100361.84
2023-05-13T23:16:30.311Z,100360.69
2023-05-13T23:18:57.757Z,100364.22
2023-05-13T23:21:25.032Z,100364.47
2023-05-13T23:23:52.454Z,100360.16
2023-05-13T23:26:19.974Z,100362.13
2023-05-13T23:28:47.105Z,100363.41
2023-05-13T23:31:14.408Z,100353.31
2023-05-13T23:33:41.843Z,100354.81
2023-05-13T23:36:09.038Z,100351.78
2023-05-13T23:38:36.215Z,100346.00
2023-05-13T23:41:03.669Z,100360.25
2023-05-13T23:43:31.119Z,100355.16
2023-05-13T23:45:58.346Z,100350.22
2023-05-13T23:48:28.629Z,100346.94
2023-05-13T23:50:55.789Z,100342.44
2023-05-13T23:53:22.974Z,100343.31
2023-05-13T23:55:50.437Z,100335.31
2023-05-13T23:58:17.589Z,100335.66
